createdAt,value
2023-03-02T00:00:16.410Z,100229.50
2023-03-02T00:02:45.632Z,100220.19
2023-03-02T00:05:14.988Z,100222.66
2023-03-02T00:07:44.184Z,100225.88
2023-03-02T00:10:13.306Z,100215.81
2023-03-02T00:12:42.705Z,100216.72
2023-03-02T00:15:13.409Z,100221.75
2023-03-02T00:17:42.412Z,100223.44
2023-03-02T00:20:12.843Z,100223.53
2023-03-02T00:22:44.915Z,100223.25
2023-03-02T00:25:15.691Z,100219.91
2023-03-02T00:27:44.777Z,100214.63
2023-03-02T00:30:16.004Z,100224.00
2023-03-02T00:32:46.052Z,100227.56
2023-03-02T00:35:14.810Z,100219.22
2023-03-02T00:37:43.523Z,100223.25
2023-03-02T00:40:13.147Z,100217.41
2023-03-02T00:42:41.854Z,100210.63
2023-03-02T00:45:11.238Z,100205.47
2023-03-02T00:47:42.538Z,100202.72
2023-03-02T00:50:12.434Z,100208.53
2023-03-02T00:52:41.024Z,100205.97
2023-03-02T00:55:10.584Z,100196.50
2023-03-02T00:57:39.051Z,100200.47
2023-03-02T01:00:10.160Z,100188.63
2023-03-02T01:02:44.633Z,100190.25
2023-03-02T01:05:18.086Z,100180.00
2023-03-02T01:07:47.350Z,100185.78
2023-03-02T01:10:16.230Z,100176.66
2023-03-02T01:12:45.082Z,100176.38
2023-03-02T01:15:14.288Z,100170.16
2023-03-02T01:17:44.456Z,100170.84
2023-03-02T01:20:13.818Z,100170.41
2023-03-02T01:22:44.919Z,100157.75
2023-03-02T01:25:14.574Z,100158.75
2023-03-02T01:27:43.512Z,100164.22
2023-03-02T01:30:13.620Z,100154.97
2023-03-02T01:32:43.811Z,100152.03
2023-03-02T01:35:12.674Z,100156.16
2023-03-02T01:37:41.466Z,100149.94
2023-03-02T01:40:14.354Z,100149.13
2023-03-02T01:42:52.161Z,100144.84
2023-03-02T01:45:43.035Z,100148.75
2023-03-02T01:48:17.073Z,100150.06
2023-03-02T01:50:46.707Z,100155.91
2023-03-02T01:53:17.135Z,100152.28
2023-03-02T01:55:47.353Z,100157.88
2023-03-02T01:58:18.053Z,100147.53
2023-03-02T02:00:47.322Z,100141.41
2023-03-02T02:03:22.198Z,100150.47
2023-03-02T02:06:00.966Z,100146.06
2023-03-02T02:08:30.022Z,100148.31
2023-03-02T02:10:59.909Z,100150.16
2023-03-02T02:13:29.373Z,100143.84
2023-03-02T02:15:58.191Z,100141.59
2023-03-02T02:18:28.780Z,100142.50
2023-03-02T02:20:58.420Z,100140.66
2023-03-02T02:23:28.443Z,100142.66
2023-03-02T02:26:28.692Z,100132.75
2023-03-02T02:29:02.162Z,100136.19
2023-03-02T02:31:37.602Z,100132.75
2023-03-02T02:34:13.543Z,100139.47
2023-03-02T02:36:48.927Z,100130.91
2023-03-02T02:39:25.123Z,100128.50
2023-03-02T02:41:58.252Z,100134.34
2023-03-02T02:44:32.534Z,100119.78
2023-03-02T02:47:02.328Z,100124.00
2023-03-02T02:49:35.403Z,100128.25
2023-03-02T02:52:06.924Z,100124.00
2023-03-02T02:54:37.230Z,100125.72
2023-03-02T02:57:06.871Z,100127.03
2023-03-02T02:59:40.177Z,100130.38
2023-03-02T03:02:16.932Z,100117.00
2023-03-02T03:04:45.706Z,100119.69
2023-03-02T03:07:18.825Z,100117.13
2023-03-02T03:09:50.873Z,100114.63
2023-03-02T03:12:23.779Z,100114.66
2023-03-02T03:14:56.852Z,100112.81
2023-03-02T03:17:25.672Z,100112.09
2023-03-02T03:20:06.643Z,100120.72
2023-03-02T03:22:40.346Z,100116.31
2023-03-02T03:25:15.709Z,100110.56
2023-03-02T03:27:47.966Z,100108.78
2023-03-02T03:30:19.695Z,100102.31
2023-03-02T03:32:49.073Z,100105.78
2023-03-02T03:35:18.476Z,100107.47
2023-03-02T03:37:49.003Z,100106.50
2023-03-02T03:40:20.159Z,100108.91
2023-03-02T03:42:50.129Z,100111.44
2023-03-02T03:45:20.441Z,100103.13
2023-03-02T03:47:49.253Z,100102.44
2023-03-02T03:50:18.522Z,100103.91
2023-03-02T03:52:47.472Z,100100.53
2023-03-02T03:55:30.378Z,100095.50
2023-03-02T03:58:00.169Z,100102.44
2023-03-02T04:00:30.530Z,100098.88
2023-03-02T04:03:06.679Z,100103.97
2023-03-02T04:05:35.842Z,100100.47
2023-03-02T04:08:05.959Z,100102.84
2023-03-02T04:10:36.118Z,100109.53
2023-03-02T04:13:04.989Z,100109.41
2023-03-02T04:15:37.004Z,100112.53
2023-03-02T04:18:05.846Z,100106.53
2023-03-02T04:20:35.343Z,100107.13
2023-03-02T04:23:04.267Z,100108.91
2023-03-02T04:25:33.157Z,100108.25
2023-03-02T04:28:17.648Z,100104.69
2023-03-02T04:30:49.003Z,100108.13
2023-03-02T04:33:17.936Z,100102.44
2023-03-02T04:35:46.722Z,100104.94
2023-03-02T04:38:16.021Z,100108.25
2023-03-02T04:40:46.284Z,100100.22
2023-03-02T04:43:14.780Z,100094.31
2023-03-02T04:45:43.432Z,100093.44
2023-03-02T04:48:13.645Z,100094.50
2023-03-02T04:50:42.392Z,100088.56
2023-03-02T04:53:12.637Z,100080.22
2023-03-02T04:55:41.618Z,100075.09
2023-03-02T04:58:10.888Z,100092.97
2023-03-02T05:00:39.639Z,100087.94
2023-03-02T05:03:08.599Z,100090.56
2023-03-02T05:05:38.974Z,100089.69
2023-03-02T05:08:07.745Z,100090.56
2023-03-02T05:10:36.439Z,100100.59
2023-03-02T05:13:06.082Z,100095.72
2023-03-02T05:15:35.861Z,100100.75
2023-03-02T05:18:04.402Z,100099.94
2023-03-02T05:20:33.567Z,100100.84
2023-03-02T05:23:05.874Z,100096.56
2023-03-02T05:25:36.783Z,100098.00
2023-03-02T05:28:06.433Z,100107.09
2023-03-02T05:30:38.000Z,100105.09
2023-03-02T05:33:06.999Z,100106.69
2023-03-02T05:35:36.099Z,100109.25
2023-03-02T05:38:06.496Z,100113.56
2023-03-02T05:40:35.416Z,100108.72
2023-03-02T05:43:04.177Z,100110.50
2023-03-02T05:45:36.191Z,100108.06
2023-03-02T05:48:05.531Z,100111.38
2023-03-02T05:50:34.445Z,100112.50
2023-03-02T05:53:03.801Z,100116.22
2023-03-02T05:55:37.013Z,100122.69
2023-03-02T05:58:06.339Z,100115.28
2023-03-02T06:00:35.148Z,100119.50
2023-03-02T06:03:03.906Z,100117.91
2023-03-02T06:05:33.080Z,100121.34
2023-03-02T06:08:01.964Z,100127.53
2023-03-02T06:10:30.740Z,100127.63
2023-03-02T06:13:01.046Z,100115.16
2023-03-02T06:15:30.419Z,100128.03
2023-03-02T06:17:59.472Z,100122.16
2023-03-02T06:20:29.059Z,100132.59
2023-03-02T06:22:58.751Z,100130.47
2023-03-02T06:25:27.546Z,100134.66
2023-03-02T06:27:56.330Z,100140.34
2023-03-02T06:30:28.043Z,100132.78
2023-03-02T06:32:56.946Z,100134.72
2023-03-02T06:35:25.800Z,100140.59
2023-03-02T06:37:54.666Z,100145.56
2023-03-02T06:40:23.346Z,100118.75
2023-03-02T06:42:52.124Z,100142.41
2023-03-02T06:45:21.021Z,100141.16
2023-03-02T06:47:51.128Z,100136.28
2023-03-02T06:50:20.169Z,100141.66
2023-03-02T06:52:48.951Z,100109.66
2023-03-02T06:55:17.932Z,100137.53
2023-03-02T06:57:46.660Z,100134.50
2023-03-02T07:00:17.601Z,100130.69
2023-03-02T07:02:46.782Z,100126.56
2023-03-02T07:05:17.133Z,100117.88
2023-03-02T07:07:46.059Z,100123.22
2023-03-02T07:10:15.225Z,100125.75
2023-03-02T07:12:44.341Z,100131.09
2023-03-02T07:15:14.620Z,100131.16
2023-03-02T07:17:46.024Z,100129.78
2023-03-02T07:20:18.208Z,100131.06
2023-03-02T07:22:47.142Z,100137.38
2023-03-02T07:25:15.881Z,100128.47
2023-03-02T07:27:44.946Z,100135.75
2023-03-02T07:30:15.293Z,100129.91
2023-03-02T07:32:45.420Z,100131.97
2023-03-02T07:35:14.260Z,100135.47
2023-03-02T07:37:44.730Z,100133.19
2023-03-02T07:40:14.714Z,100130.81
2023-03-02T07:42:43.520Z,100132.03
2023-03-02T07:45:13.186Z,100129.72
2023-03-02T07:47:42.034Z,100128.91
2023-03-02T07:50:12.357Z,100131.56
2023-03-02T07:52:41.150Z,100127.72
2023-03-02T07:55:12.305Z,100129.00
2023-03-02T07:57:41.028Z,100127.44
2023-03-02T08:00:11.080Z,100132.91
2023-03-02T08:02:43.074Z,100132.38
2023-03-02T08:05:12.338Z,100126.13
2023-03-02T08:07:41.328Z,100119.63
2023-03-02T08:10:13.183Z,100126.59
2023-03-02T08:12:43.232Z,100132.69
2023-03-02T08:15:13.034Z,100128.03
2023-03-02T08:17:41.489Z,100127.44
2023-03-02T08:20:11.368Z,100119.63
2023-03-02T08:22:40.275Z,100132.50
2023-03-02T08:25:09.887Z,100122.53
2023-03-02T08:27:40.437Z,100129.25
2023-03-02T08:30:12.796Z,100133.66
2023-03-02T08:32:41.719Z,100129.97
2023-03-02T08:35:11.005Z,100127.16
2023-03-02T08:37:39.861Z,100128.31
2023-03-02T08:40:09.755Z,100125.75
2023-03-02T08:42:39.974Z,100129.16
2023-03-02T08:45:10.275Z,100120.94
2023-03-02T08:47:39.184Z,100119.41
2023-03-02T08:50:08.505Z,100088.13
2023-03-02T08:52:37.246Z,100111.34
2023-03-02T08:55:07.284Z,100108.97
2023-03-02T08:57:36.099Z,100103.63
2023-03-02T09:00:09.397Z,100104.59
2023-03-02T09:02:38.165Z,100109.97
2023-03-02T09:05:07.285Z,100103.59
2023-03-02T09:07:36.127Z,100102.50
2023-03-02T09:10:05.198Z,100097.66
2023-03-02T09:12:34.212Z,100099.47
2023-03-02T09:15:03.298Z,100094.44
2023-03-02T09:17:33.660Z,100090.09
2023-03-02T09:20:02.429Z,100100.25
2023-03-02T09:22:32.106Z,100096.25
2023-03-02T09:25:00.521Z,100089.75
2023-03-02T09:27:29.255Z,100089.88
2023-03-02T09:29:58.347Z,100085.75
2023-03-02T09:32:27.256Z,100074.31
2023-03-02T09:34:57.597Z,100082.25
2023-03-02T09:37:26.401Z,100079.91
2023-03-02T09:39:55.197Z,100079.19
2023-03-02T09:42:43.881Z,100076.78
2023-03-02T09:45:35.323Z,100083.09
2023-03-02T09:48:14.822Z,100085.59
2023-03-02T09:50:56.122Z,100080.19
2023-03-02T09:53:46.324Z,100081.25
2023-03-02T09:56:18.677Z,100080.47
